sensor_id;sensor_type;location;lat;lon;timestamp;temperature;humidity
19224;DHT22;9746;47.180;9.776;2022-12-07T11:20:11;9.20;99.90
19224;DHT22;9746;47.180;9.776;2022-12-07T11:22:49;9.10;99.90
19224;DHT22;9746;47.180;9.776;2022-12-07T11:25:26;9.10;99.90
19224;DHT22;9746;47.180;9.776;2022-12-07T11:28:06;9.20;99.90
19224;DHT22;9746;47.180;9.776;2022-12-07T11:30:43;9.50;99.90
19224;DHT22;9746;47.180;9.776;2022-12-07T11:33:17;9.80;99.90
19224;DHT22;9746;47.180;9.776;2022-12-07T11:36:02;10.30;99.90
19224;DHT22;9746;47.180;9.776;2022-12-07T11:38:37;10.70;99.90
19224;DHT22;9746;47.180;9.776;2022-12-07T11:41:25;11.20;99.90
19224;DHT22;9746;47.180;9.776;2022-12-07T11:44:01;11.40;99.90
19224;DHT22;9746;47.180;9.776;2022-12-07T11:46:46;11.60;99.90
19224;DHT22;9746;47.180;9.776;2022-12-07T11:49:21;11.80;99.90
19224;DHT22;9746;47.180;9.776;2022-12-07T11:51:58;11.90;99.90
19224;DHT22;9746;47.180;9.776;2022-12-07T11:54:29;11.90;99.90
19224;DHT22;9746;47.180;9.776;2022-12-07T11:57:04;11.70;99.90
19224;DHT22;9746;47.180;9.776;2022-12-07T11:59:39;11.90;99.90
19224;DHT22;9746;47.180;9.776;2022-12-07T12:02:14;12.20;99.90
19224;DHT22;9746;47.180;9.776;2022-12-07T12:04:50;12.20;99.90
19224;DHT22;9746;47.180;9.776;2022-12-07T12:07:26;12.60;99.90
19224;DHT22;9746;47.180;9.776;2022-12-07T12:09:57;12.80;99.90
19224;DHT22;9746;47.180;9.776;2022-12-07T12:12:50;13.00;99.90
19224;DHT22;9746;47.180;9.776;2022-12-07T12:15:33;13.20;99.90
19224;DHT22;9746;47.180;9.776;2022-12-07T12:18:25;13.30;99.90
19224;DHT22;9746;47.180;9.776;2022-12-07T12:21:02;13.40;99.90
19224;DHT22;9746;47.180;9.776;2022-12-07T12:23:39;13.10;99.90
19224;DHT22;9746;47.180;9.776;2022-12-07T12:26:16;12.90;99.90
19224;DHT22;9746;47.180;9.776;2022-12-07T12:28:53;12.40;99.90
19224;DHT22;9746;47.180;9.776;2022-12-07T12:34:34;11.50;99.90
19224;DHT22;9746;47.180;9.776;2022-12-07T12:37:42;11.00;99.90
19224;DHT22;9746;47.180;9.776;2022-12-07T12:43:41;10.10;99.90
19224;DHT22;9746;47.180;9.776;2022-12-07T12:46:46;9.70;99.90
19224;DHT22;9746;47.180;9.776;2022-12-07T12:52:51;9.10;99.90
19224;DHT22;9746;47.180;9.776;2022-12-07T12:55:46;8.90;99.90
19224;DHT22;9746;47.180;9.776;2022-12-07T12:58:33;8.70;99.90
19224;DHT22;9746;47.180;9.776;2022-12-07T13:07:49;8.10;99.90
19224;DHT22;9746;47.180;9.776;2022-12-07T13:10:24;7.90;99.90
19224;DHT22;9746;47.180;9.776;2022-12-07T13:13:01;7.60;99.90
19224;DHT22;9746;47.180;9.776;2022-12-07T13:15:35;7.50;99.90
19224;DHT22;9746;47.180;9.776;2022-12-07T13:18:24;7.60;99.90
19224;DHT22;9746;47.180;9.776;2022-12-07T13:20:55;7.60;99.90
19224;DHT22;9746;47.180;9.776;2022-12-07T13:23:27;7.50;99.90
19224;DHT22;9746;47.180;9.776;2022-12-07T13:26:15;7.50;99.90
19224;DHT22;9746;47.180;9.776;2022-12-07T13:28:45;7.50;99.90
19224;DHT22;9746;47.180;9.776;2022-12-07T13:31:32;7.60;99.90
19224;DHT22;9746;47.180;9.776;2022-12-07T13:34:00;7.60;99.90
19224;DHT22;9746;47.180;9.776;2022-12-07T13:36:38;7.50;99.90
19224;DHT22;9746;47.180;9.776;2022-12-07T13:39:19;7.50;99.90
19224;DHT22;9746;47.180;9.776;2022-12-07T13:41:51;7.40;99.90
19224;DHT22;9746;47.180;9.776;2022-12-07T13:44:20;7.40;99.90
19224;DHT22;9746;47.180;9.776;2022-12-07T13:46:54;7.20;99.90
19224;DHT22;9746;47.180;9.776;2022-12-07T13:49:25;7.20;99.90
19224;DHT22;9746;47.180;9.776;2022-12-07T13:51:55;7.20;99.90
19224;DHT22;9746;47.180;9.776;2022-12-07T13:54:46;7.10;99.90
19224;DHT22;9746;47.180;9.776;2022-12-07T13:57:14;7.00;99.90
19224;DHT22;9746;47.180;9.776;2022-12-07T13:59:42;6.80;99.90
19224;DHT22;9746;47.180;9.776;2022-12-07T14:02:21;6.70;99.90
19224;DHT22;9746;47.180;9.776;2022-12-07T14:04:50;6.70;99.90
19224;DHT22;9746;47.180;9.776;2022-12-07T14:07:26;6.60;99.90
19224;DHT22;9746;47.180;9.776;2022-12-07T14:09:58;6.50;99.90
19224;DHT22;9746;47.180;9.776;2022-12-07T14:12:29;6.40;99.90
19224;DHT22;9746;47.180;9.776;2022-12-07T14:14:59;6.30;99.90
19224;DHT22;9746;47.180;9.776;2022-12-07T14:17:29;6.30;99.90
19224;DHT22;9746;47.180;9.776;2022-12-07T14:19:58;6.20;99.90
19224;DHT22;9746;47.180;9.776;2022-12-07T14:22:39;6.10;99.90
19224;DHT22;9746;47.180;9.776;2022-12-07T14:25:25;6.10;99.90
19224;DHT22;9746;47.180;9.776;2022-12-07T14:27:56;6.00;99.90
19224;DHT22;9746;47.180;9.776;2022-12-07T14:30:26;5.90;99.90
19224;DHT22;9746;47.180;9.776;2022-12-07T14:33:02;5.90;99.90
19224;DHT22;9746;47.180;9.776;2022-12-07T14:35:31;5.80;99.90
19224;DHT22;9746;47.180;9.776;2022-12-07T14:37:59;5.70;99.90
19224;DHT22;9746;47.180;9.776;2022-12-07T14:40:28;5.60;99.90
19224;DHT22;9746;47.180;9.776;2022-12-07T14:43:09;5.60;99.90
19224;DHT22;9746;47.180;9.776;2022-12-07T14:45:38;5.50;99.90
19224;DHT22;9746;47.180;9.776;2022-12-07T14:48:11;5.50;99.90
19224;DHT22;9746;47.180;9.776;2022-12-07T14:50:42;5.30;99.90
19224;DHT22;9746;47.180;9.776;2022-12-07T14:53:14;5.00;99.90
19224;DHT22;9746;47.180;9.776;2022-12-07T14:55:44;4.80;99.90
19224;DHT22;9746;47.180;9.776;2022-12-07T14:58:14;4.60;99.90
19224;DHT22;9746;47.180;9.776;2022-12-07T15:00:42;4.50;99.90
19224;DHT22;9746;47.180;9.776;2022-12-07T15:03:10;4.30;99.90
19224;DHT22;9746;47.180;9.776;2022-12-07T15:05:38;4.20;99.90
19224;DHT22;9746;47.180;9.776;2022-12-07T15:08:08;4.10;99.90
19224;DHT22;9746;47.180;9.776;2022-12-07T15:10:35;4.10;99.90
19224;DHT22;9746;47.180;9.776;2022-12-07T15:13:07;4.10;99.90
19224;DHT22;9746;47.180;9.776;2022-12-07T15:15:53;4.00;99.90
19224;DHT22;9746;47.180;9.776;2022-12-07T15:18:27;4.00;99.90
19224;DHT22;9746;47.180;9.776;2022-12-07T15:20:55;3.90;99.90
19224;DHT22;9746;47.180;9.776;2022-12-07T15:23:22;3.90;99.90
19224;DHT22;9746;47.180;9.776;2022-12-07T15:25:50;3.90;99.90
19224;DHT22;9746;47.180;9.776;2022-12-07T15:28:18;3.90;99.90
19224;DHT22;9746;47.180;9.776;2022-12-07T15:30:46;3.80;99.90
19224;DHT22;9746;47.180;9.776;2022-12-07T15:33:14;3.80;99.90
19224;DHT22;9746;47.180;9.776;2022-12-07T15:35:43;3.80;99.90
19224;DHT22;9746;47.180;9.776;2022-12-07T15:38:11;3.70;99.90
19224;DHT22;9746;47.180;9.776;2022-12-07T15:40:39;3.70;99.90
19224;DHT22;9746;47.180;9.776;2022-12-07T15:43:08;3.70;99.90
19224;DHT22;9746;47.180;9.776;2022-12-07T15:45:58;3.60;99.90
19224;DHT22;9746;47.180;9.776;2022-12-07T15:48:25;3.60;99.90
19224;DHT22;9746;47.180;9.776;2022-12-07T15:50:52;3.60;99.90
19224;DHT22;9746;47.180;9.776;2022-12-07T15:53:21;3.60;99.90
19224;DHT22;9746;47.180;9.776;2022-12-07T15:55:49;3.60;99.90
19224;DHT22;9746;47.180;9.776;2022-12-07T15:58:17;3.60;99.90
19224;DHT22;9746;47.180;9.776;2022-12-07T16:00:44;3.60;99.90
19224;DHT22;9746;47.180;9.776;2022-12-07T16:03:16;3.70;99.90
19224;DHT22;9746;47.180;9.776;2022-12-07T16:05:48;3.80;99.90
19224;DHT22;9746;47.180;9.776;2022-12-07T16:08:17;3.80;99.90
19224;DHT22;9746;47.180;9.776;2022-12-07T16:10:44;3.80;99.90
19224;DHT22;9746;47.180;9.776;2022-12-07T16:13:18;3.80;99.90
19224;DHT22;9746;47.180;9.776;2022-12-07T16:15:45;3.80;99.90
19224;DHT22;9746;47.180;9.776;2022-12-07T16:18:12;3.80;99.90
19224;DHT22;9746;47.180;9.776;2022-12-07T16:20:41;3.80;99.90
19224;DHT22;9746;47.180;9.776;2022-12-07T16:23:16;3.80;99.90
19224;DHT22;9746;47.180;9.776;2022-12-07T16:25:43;3.80;99.90
19224;DHT22;9746;47.180;9.776;2022-12-07T16:28:10;3.70;99.90
19224;DHT22;9746;47.180;9.776;2022-12-07T16:30:38;3.70;99.90
19224;DHT22;9746;47.180;9.776;2022-12-07T16:33:05;3.70;99.90
19224;DHT22;9746;47.180;9.776;2022-12-07T16:35:32;3.70;99.90
19224;DHT22;9746;47.180;9.776;2022-12-07T16:38:03;3.80;99.90
19224;DHT22;9746;47.180;9.776;2022-12-07T16:40:31;3.80;99.90
19224;DHT22;9746;47.180;9.776;2022-12-07T16:43:05;3.80;99.90
19224;DHT22;9746;47.180;9.776;2022-12-07T16:45:33;3.80;99.90
19224;DHT22;9746;47.180;9.776;2022-12-07T16:48:03;3.80;99.90
19224;DHT22;9746;47.180;9.776;2022-12-07T16:50:31;3.80;99.90
19224;DHT22;9746;47.180;9.776;2022-12-07T16:52:59;3.80;99.90
19224;DHT22;9746;47.180;9.776;2022-12-07T16:55:28;3.80;99.90
19224;DHT22;9746;47.180;9.776;2022-12-07T16:57:58;3.80;99.90
19224;DHT22;9746;47.180;9.776;2022-12-07T17:00:26;3.80;99.90
19224;DHT22;9746;47.180;9.776;2022-12-07T17:02:56;3.80;99.90
19224;DHT22;9746;47.180;9.776;2022-12-07T17:05:23;3.80;99.90
19224;DHT22;9746;47.180;9.776;2022-12-07T17:08:02;3.80;99.90
19224;DHT22;9746;47.180;9.776;2022-12-07T17:10:33;3.70;99.90
19224;DHT22;9746;47.180;9.776;2022-12-07T17:13:03;3.80;99.90
19224;DHT22;9746;47.180;9.776;2022-12-07T17:15:59;3.70;99.90
19224;DHT22;9746;47.180;9.776;2022-12-07T17:18:33;3.70;99.90
19224;DHT22;9746;47.180;9.776;2022-12-07T17:21:06;3.70;99.90
19224;DHT22;9746;47.180;9.776;2022-12-07T17:23:35;3.70;99.90
19224;DHT22;9746;47.180;9.776;2022-12-07T17:26:09;3.70;99.90
19224;DHT22;9746;47.180;9.776;2022-12-07T17:28:38;3.70;99.90
19224;DHT22;9746;47.180;9.776;2022-12-07T17:31:08;3.70;99.90
19224;DHT22;9746;47.180;9.776;2022-12-07T17:33:42;3.80;99.90
19224;DHT22;9746;47.180;9.776;2022-12-07T17:36:11;3.70;99.90
19224;DHT22;9746;47.180;9.776;2022-12-07T17:38:46;3.70;99.90
19224;DHT22;9746;47.180;9.776;2022-12-07T17:41:18;3.80;99.90
